Time;durP1;ratioP1;P1;durP2;ratioP2;P2;SDS_P1;SDS_P2;PMS_P1;PMS_P2;Temp;Humidity;BMP_temperature;BMP_pressure;BME280_temperature;BME280_humidity;BME280_pressure;Samples;Min_cycle;Max_cycle;Signal;HPM_P1;HPM_P2
2021/12/12 00:01:12;;;;;;;145.57;40.13;;;3.80;99.90;;;;;;5110144;28;20049;-73
2021/12/12 00:03:45;;;;;;;133.32;39.75;;;3.80;99.90;;;;;;5090709;28;20076;-73
2021/12/12 00:06:16;;;;;;;136.38;38.83;;;3.80;99.90;;;;;;5111781;28;20084;-73
2021/12/12 00:08:44;;;;;;;127.65;40.55;;;3.80;99.90;;;;;;5110966;28;20064;-72
2021/12/12 00:11:12;;;;;;;117.35;37.97;;;3.80;99.90;;;;;;5107822;28;20406;-73
2021/12/12 00:13:54;;;;;;;140.95;40.10;;;3.80;99.90;;;;;;5094847;28;20503;-73
2021/12/12 00:16:20;;;;;;;141.85;40.85;;;3.80;99.90;;;;;;5111653;28;20035;-73
2021/12/12 00:18:46;;;;;;;136.20;40.45;;;3.80;99.90;;;;;;5110861;28;20042;-73
2021/12/12 00:21:14;;;;;;;134.77;39.28;;;3.80;99.90;;;;;;5111305;28;20465;-71
2021/12/12 00:23:40;;;;;;;129.05;38.17;;;3.80;99.90;;;;;;5111579;28;20035;-74
2021/12/12 00:26:06;;;;;;;134.00;38.97;;;3.80;99.90;;;;;;5108390;28;20439;-72
2021/12/12 00:28:33;;;;;;;138.35;39.60;;;3.80;99.90;;;;;;5095780;27;20481;-73
2021/12/12 00:31:08;;;;;;;132.07;39.08;;;3.80;99.90;;;;;;5114904;27;20062;-72
2021/12/12 00:33:35;;;;;;;123.03;37.38;;;3.80;99.90;;;;;;5098365;27;20031;-74
2021/12/12 00:36:01;;;;;;;134.50;38.92;;;3.80;99.90;;;;;;5114682;27;20390;-73
2021/12/12 00:38:30;;;;;;;128.57;38.33;;;3.90;99.90;;;;;;5113982;27;20042;-73
2021/12/12 00:41:02;;;;;;;123.03;38.38;;;3.80;99.90;;;;;;5114712;27;20122;-73
2021/12/12 00:43:33;;;;;;;133.18;38.92;;;3.90;99.90;;;;;;5097976;27;20114;-73
2021/12/12 00:46:02;;;;;;;130.20;37.88;;;3.90;99.90;;;;;;5113098;27;20609;-73
2021/12/12 00:48:30;;;;;;;125.95;38.97;;;3.90;99.90;;;;;;5112527;27;20035;-73
2021/12/12 00:50:57;;;;;;;129.07;38.58;;;3.90;99.90;;;;;;5112058;27;20043;-73
2021/12/12 00:53:24;;;;;;;133.65;38.55;;;3.90;99.90;;;;;;5108351;27;20516;-73
2021/12/12 00:55:53;;;;;;;125.85;38.88;;;3.90;99.90;;;;;;5114439;27;20046;-73
2021/12/12 00:58:20;;;;;;;127.30;38.05;;;3.90;99.90;;;;;;5111243;27;20042;-73
2021/12/12 01:00:53;;;;;;;142.93;39.30;;;3.90;99.90;;;;;;5106097;27;20031;-73
2021/12/12 01:03:27;;;;;;;137.13;39.72;;;3.90;99.90;;;;;;5111649;27;20050;-73
2021/12/12 01:05:54;;;;;;;137.45;38.85;;;3.90;99.90;;;;;;5114904;27;20050;-73
2021/12/12 01:08:20;;;;;;;132.88;39.40;;;3.90;99.90;;;;;;5114559;27;20038;-73
2021/12/12 01:11:06;;;;;;;118.13;37.10;;;4.00;99.90;;;;;;5113425;27;20043;-73
2021/12/12 01:13:32;;;;;;;130.73;38.20;;;3.90;99.90;;;;;;5111899;27;20031;-72
2021/12/12 01:16:13;;;;;;;135.40;39.90;;;3.90;99.90;;;;;;5113111;27;20512;-73
2021/12/12 01:18:44;;;;;;;125.30;37.88;;;4.00;99.90;;;;;;5111130;27;20043;-72
2021/12/12 01:21:15;;;;;;;126.22;37.28;;;3.90;99.90;;;;;;5111928;27;20053;-73
2021/12/12 01:24:03;;;;;;;130.38;38.15;;;4.00;99.90;;;;;;5112944;27;20039;-73
2021/12/12 01:26:30;;;;;;;128.02;38.53;;;4.00;99.90;;;;;;5113919;27;20474;-74
2021/12/12 01:28:57;;;;;;;119.07;37.95;;;4.00;99.90;;;;;;5111598;27;20043;-73
2021/12/12 01:31:29;;;;;;;120.25;37.08;;;4.00;99.90;;;;;;5114812;27;20129;-73
2021/12/12 01:34:09;;;;;;;131.77;35.80;;;4.00;99.90;;;;;;5114636;27;20494;-73
2021/12/12 01:36:50;;;;;;;116.38;35.08;;;4.10;99.90;;;;;;5113298;27;20284;-73
2021/12/12 01:39:23;;;;;;;127.35;35.95;;;4.10;99.90;;;;;;5112228;27;20039;-74
2021/12/12 01:41:51;;;;;;;;;;;4.10;99.90;;;;;;5112508;27;20038;-73
2021/12/12 01:44:44;;;;;;;118.90;35.22;;;4.10;99.90;;;;;;5114546;27;19915;-73
2021/12/12 01:47:34;;;;;;;117.35;34.88;;;4.10;99.90;;;;;;5114045;27;20046;-74
2021/12/12 01:50:07;;;;;;;113.63;34.78;;;4.10;99.90;;;;;;5112098;27;20127;-73
2021/12/12 01:52:33;;;;;;;130.48;36.58;;;4.10;99.90;;;;;;5112694;27;20042;-73
2021/12/12 01:55:22;;;;;;;122.80;35.58;;;4.10;99.90;;;;;;5111888;27;20474;-73
2021/12/12 01:57:48;;;;;;;121.65;35.08;;;4.10;99.90;;;;;;5112460;27;20051;-72
2021/12/12 02:00:22;;;;;;;135.27;34.97;;;4.10;99.90;;;;;;5107951;27;20043;-72
2021/12/12 02:02:48;;;;;;;122.43;35.72;;;4.10;99.90;;;;;;5130422;27;20043;-72
2021/12/12 02:05:18;;;;;;;121.10;35.13;;;4.10;99.90;;;;;;5111539;27;20027;-73
2021/12/12 02:07:49;;;;;;;118.03;34.42;;;4.10;99.90;;;;;;5113420;27;20039;-73
2021/12/12 02:10:19;;;;;;;104.05;32.70;;;4.10;99.90;;;;;;5112933;27;20062;-73
2021/12/12 02:12:46;;;;;;;128.05;35.15;;;4.10;99.90;;;;;;5111831;27;20039;-72
2021/12/12 02:15:14;;;;;;;107.57;34.50;;;4.10;99.90;;;;;;5112554;27;20027;-71
2021/12/12 02:17:44;;;;;;;120.65;34.47;;;4.20;99.90;;;;;;5113552;27;20047;-72
2021/12/12 02:20:33;;;;;;;107.07;33.42;;;4.10;99.90;;;;;;5112546;27;20047;-73
2021/12/12 02:23:07;;;;;;;111.90;32.05;;;4.10;99.90;;;;;;5112097;27;20393;-72
2021/12/12 02:36:38;;;;;;;109.15;32.03;;;4.20;99.90;;;;;;5106307;27;20046;-71
2021/12/12 02:39:08;;;;;;;106.88;30.77;;;4.20;99.90;;;;;;5104504;27;20121;-72
2021/12/12 02:41:35;;;;;;;108.40;34.22;;;4.20;99.90;;;;;;5112985;27;20031;-72
2021/12/12 02:44:03;;;;;;;115.78;32.05;;;4.20;99.90;;;;;;5112275;27;20492;-71
2021/12/12 02:46:34;;;;;;;108.65;32.60;;;4.20;99.90;;;;;;5106518;27;20067;-73
2021/12/12 02:49:07;;;;;;;110.50;31.92;;;4.30;99.90;;;;;;5112003;27;20050;-71
2021/12/12 02:51:38;;;;;;;104.88;30.50;;;4.20;99.90;;;;;;5109337;28;20076;-71
2021/12/12 02:54:06;;;;;;;104.80;32.22;;;4.20;99.90;;;;;;5112219;27;20435;-71
2021/12/12 02:56:40;;;;;;;96.13;31.15;;;4.20;99.90;;;;;;5110504;27;20035;-72
2021/12/12 02:59:10;;;;;;;109.25;31.05;;;4.30;99.90;;;;;;5106965;27;20043;-71
2021/12/12 03:01:43;;;;;;;104.95;30.48;;;4.30;99.90;;;;;;5102014;28;20031;-73
2021/12/12 03:04:09;;;;;;;118.75;30.60;;;4.20;99.90;;;;;;5090846;27;20122;-71
2021/12/12 03:06:38;;;;;;;103.57;30.33;;;4.30;99.90;;;;;;5104897;27;20039;-70
2021/12/12 03:09:24;;;;;;;98.15;30.25;;;4.30;99.90;;;;;;5107179;27;20405;-73
2021/12/12 03:12:00;;;;;;;95.18;28.48;;;4.30;99.90;;;;;;5106103;27;20232;-71
2021/12/12 03:14:32;;;;;;;103.25;29.15;;;4.30;99.90;;;;;;5112805;27;20078;-70
2021/12/12 03:17:00;;;;;;;104.50;28.48;;;4.30;99.90;;;;;;5112883;28;20057;-71
2021/12/12 03:19:25;;;;;;;93.30;28.27;;;4.30;99.90;;;;;;5112453;27;20035;-71
2021/12/12 03:21:51;;;;;;;87.75;28.20;;;4.30;99.90;;;;;;5111964;27;20080;-73
2021/12/12 03:24:25;;;;;;;106.57;29.10;;;4.30;99.90;;;;;;5113266;28;20424;-71
2021/12/12 03:26:55;;;;;;;90.63;27.45;;;4.30;99.90;;;;;;5111842;28;20084;-71
2021/12/12 03:29:20;;;;;;;85.20;26.08;;;4.30;99.90;;;;;;5112232;28;20118;-71
2021/12/12 03:31:50;;;;;;;94.07;27.98;;;4.40;99.90;;;;;;5112732;28;20194;-73
2021/12/12 03:34:21;;;;;;;94.45;28.25;;;4.30;99.90;;;;;;5111900;28;20106;-72
2021/12/12 03:36:48;;;;;;;93.95;27.20;;;4.30;99.90;;;;;;5110009;28;20118;-72
2021/12/12 03:39:19;;;;;;;99.85;27.75;;;4.40;99.90;;;;;;5111371;28;20092;-71
2021/12/12 03:41:45;;;;;;;92.18;26.58;;;4.40;99.90;;;;;;5108189;28;20031;-72
2021/12/12 03:44:17;;;;;;;91.97;27.08;;;4.40;99.90;;;;;;5122804;27;20046;-71
2021/12/12 03:46:43;;;;;;;99.25;27.63;;;4.40;99.90;;;;;;5112257;28;20037;-72
2021/12/12 03:49:10;;;;;;;93.85;28.23;;;4.40;99.90;;;;;;5109209;28;20043;-73
2021/12/12 03:51:37;;;;;;;79.18;26.80;;;4.40;99.90;;;;;;5112151;28;20122;-70
2021/12/12 03:54:03;;;;;;;84.97;27.23;;;4.50;99.90;;;;;;5110763;27;20038;-73
2021/12/12 03:56:29;;;;;;;98.82;27.02;;;4.50;99.90;;;;;;5111983;28;20087;-71
2021/12/12 03:58:56;;;;;;;94.00;27.13;;;4.50;99.90;;;;;;5094414;28;20939;-72
2021/12/12 04:01:48;;;;;;;86.57;26.77;;;4.50;99.90;;;;;;5100220;28;20047;-72
2021/12/12 04:04:21;;;;;;;82.63;27.23;;;4.50;99.90;;;;;;5112772;27;20070;-72
2021/12/12 04:06:48;;;;;;;84.25;27.50;;;4.60;99.90;;;;;;5095557;27;20051;-74
2021/12/12 04:09:14;;;;;;;87.00;25.73;;;4.60;99.90;;;;;;5113537;27;20039;-72
2021/12/12 04:11:44;;;;;;;79.68;25.45;;;4.60;99.90;;;;;;5115293;27;20393;-73
2021/12/12 04:14:11;;;;;;;76.75;26.48;;;4.60;99.90;;;;;;5114396;27;20035;-71
2021/12/12 04:16:40;;;;;;;82.90;26.85;;;4.60;99.90;;;;;;5114933;27;20106;-72
2021/12/12 04:19:07;;;;;;;86.03;26.05;;;4.60;99.90;;;;;;5115319;27;20055;-72
2021/12/12 04:21:36;;;;;;;70.88;24.23;;;4.70;99.90;;;;;;5113830;27;20393;-71
2021/12/12 04:24:03;;;;;;;82.38;25.65;;;4.70;99.90;;;;;;5097895;27;20122;-71
2021/12/12 04:26:39;;;;;;;75.75;24.42;;;4.70;99.90;;;;;;5111248;27;20040;-71
2021/12/12 04:29:10;;;;;;;84.75;23.85;;;4.70;99.90;;;;;;5113772;27;20080;-70
2021/12/12 04:31:39;;;;;;;75.00;24.77;;;4.70;99.90;;;;;;5096513;27;20035;-72
2021/12/12 04:34:06;;;;;;;83.55;25.38;;;4.70;99.90;;;;;;5114119;27;20477;-73
2021/12/12 04:36:35;;;;;;;70.25;24.38;;;4.80;99.90;;;;;;5115488;27;20385;-73
2021/12/12 04:39:10;;;;;;;72.10;24.55;;;4.80;99.90;;;;;;5112601;27;20125;-71
2021/12/12 04:41:36;;;;;;;65.25;22.48;;;4.80;99.90;;;;;;5109876;27;20397;-72
2021/12/12 04:44:02;;;;;;;67.45;22.35;;;4.80;99.90;;;;;;5113455;27;20058;-71
2021/12/12 04:52:19;;;;;;;60.45;20.83;;;4.80;99.90;;;;;;5114211;27;20185;-71
2021/12/12 04:54:52;;;;;;;52.50;20.50;;;4.90;99.90;;;;;;5130521;27;20027;-71
2021/12/12 04:57:27;;;;;;;45.72;18.15;;;4.90;99.90;;;;;;5097868;27;20119;-72
2021/12/12 05:00:14;;;;;;;49.03;18.17;;;4.90;99.90;;;;;;5105612;27;20115;-72
2021/12/12 05:03:13;;;;;;;57.03;19.63;;;4.90;99.90;;;;;;5111577;27;20086;-71
2021/12/12 05:05:46;;;;;;;42.85;16.35;;;4.90;99.90;;;;;;5128575;27;20042;-73
2021/12/12 05:08:20;;;;;;;51.55;19.13;;;5.00;99.90;;;;;;5114572;27;20035;-73
2021/12/12 05:10:59;;;;;;;51.40;18.92;;;5.00;99.90;;;;;;5106338;27;20062;-72
2021/12/12 05:13:33;;;;;;;51.15;18.23;;;5.00;99.90;;;;;;5107539;27;20077;-72
2021/12/12 05:16:06;;;;;;;47.72;16.58;;;5.00;99.90;;;;;;5094815;27;20436;-71
2021/12/12 05:18:36;;;;;;;51.05;17.77;;;5.00;99.90;;;;;;5108881;27;20405;-71
2021/12/12 05:21:07;;;;;;;41.65;16.30;;;5.10;99.90;;;;;;5114325;27;20096;-72
2021/12/12 05:23:35;;;;;;;42.30;16.92;;;5.10;99.90;;;;;;5110679;27;20057;-71
2021/12/12 05:26:04;;;;;;;43.03;16.73;;;5.10;99.90;;;;;;5113811;27;20035;-73
2021/12/12 05:28:41;;;;;;;47.50;18.20;;;5.10;99.90;;;;;;5095657;27;20039;-72
2021/12/12 05:31:09;;;;;;;41.10;16.77;;;5.10;99.90;;;;;;5096972;27;20042;-72
2021/12/12 05:33:35;;;;;;;42.13;17.10;;;5.10;99.90;;;;;;5112561;27;20122;-70
2021/12/12 05:36:01;;;;;;;46.20;17.50;;;5.10;99.90;;;;;;5113928;27;20074;-73
2021/12/12 05:38:29;;;;;;;47.20;17.38;;;5.20;99.90;;;;;;5111599;27;20067;-71
2021/12/12 05:40:54;;;;;;;42.42;17.80;;;5.10;99.90;;;;;;5113085;27;20116;-73
2021/12/12 05:43:20;;;;;;;50.22;17.85;;;5.20;99.90;;;;;;5112787;27;20167;-70
2021/12/12 05:45:47;;;;;;;48.75;19.42;;;5.20;99.90;;;;;;5114099;27;20043;-72
2021/12/12 05:48:14;;;;;;;52.03;18.55;;;5.20;99.90;;;;;;5110016;27;20043;-71
2021/12/12 05:50:41;;;;;;;51.10;17.83;;;5.20;99.90;;;;;;5112000;27;20043;-71
2021/12/12 05:53:08;;;;;;;48.50;18.38;;;5.20;99.90;;;;;;5112735;27;20035;-70
2021/12/12 05:55:36;;;;;;;52.28;19.58;;;5.20;99.90;;;;;;5112965;27;20223;-71
2021/12/12 05:58:07;;;;;;;44.53;19.75;;;5.20;99.90;;;;;;5106539;27;20308;-72
2021/12/12 06:00:38;;;;;;;47.13;18.52;;;5.20;99.90;;;;;;5110994;27;20062;-72
2021/12/12 06:03:08;;;;;;;47.40;17.75;;;5.30;99.90;;;;;;5111383;27;20027;-70
2021/12/12 06:05:34;;;;;;;46.25;18.42;;;5.30;99.90;;;;;;5111807;27;20125;-72
2021/12/12 06:07:59;;;;;;;48.53;18.13;;;5.30;99.90;;;;;;5112604;27;20154;-71
2021/12/12 06:10:25;;;;;;;49.22;19.35;;;5.30;99.90;;;;;;5111805;27;20031;-71
2021/12/12 06:12:52;;;;;;;48.08;17.55;;;5.30;99.90;;;;;;5111878;27;20034;-71
2021/12/12 06:15:21;;;;;;;44.58;17.35;;;5.30;99.90;;;;;;5111243;27;20035;-70
2021/12/12 06:17:49;;;;;;;50.47;18.58;;;5.30;99.90;;;;;;5112280;27;20043;-71
2021/12/12 06:20:17;;;;;;;54.33;18.25;;;5.40;99.90;;;;;;5109481;27;20117;-71
2021/12/12 06:22:43;;;;;;;42.90;17.50;;;5.40;99.90;;;;;;5110043;27;20043;-71
2021/12/12 06:25:10;;;;;;;48.47;19.80;;;5.40;99.90;;;;;;5106803;27;20046;-70
2021/12/12 06:27:36;;;;;;;43.53;16.63;;;5.40;99.90;;;;;;5111420;27;20035;-71
2021/12/12 06:30:10;;;;;;;42.05;16.83;;;5.40;99.90;;;;;;5111960;27;20378;-70
2021/12/12 06:32:36;;;;;;;45.53;16.65;;;5.40;99.90;;;;;;5111371;27;20114;-71
2021/12/12 06:35:07;;;;;;;46.38;17.13;;;5.40;99.90;;;;;;5111154;27;20156;-71
2021/12/12 06:37:33;;;;;;;50.85;17.08;;;5.40;99.90;;;;;;5110094;27;20485;-71
2021/12/12 06:39:59;;;;;;;52.83;18.10;;;5.40;99.90;;;;;;5094839;27;20031;-71
2021/12/12 06:42:26;;;;;;;48.60;17.38;;;5.50;99.90;;;;;;5106144;27;20442;-71
2021/12/12 06:44:52;;;;;;;46.10;16.13;;;5.50;99.90;;;;;;5111293;27;20053;-72
2021/12/12 06:47:18;;;;;;;55.50;18.25;;;5.50;99.90;;;;;;5111310;27;20035;-71
2021/12/12 06:49:45;;;;;;;50.80;17.70;;;5.50;99.90;;;;;;5111686;27;20113;-71
2021/12/12 06:52:13;;;;;;;51.20;18.73;;;5.50;99.90;;;;;;5111681;27;20241;-72
2021/12/12 06:54:39;;;;;;;46.15;16.95;;;5.50;99.90;;;;;;5129524;27;20063;-71
2021/12/12 06:57:12;;;;;;;54.10;18.25;;;5.50;99.90;;;;;;5108877;27;20039;-71
2021/12/12 06:59:39;;;;;;;43.75;17.08;;;5.60;99.90;;;;;;5111604;27;20050;-71
2021/12/12 07:02:07;;;;;;;45.13;17.42;;;5.60;99.90;;;;;;5107568;27;20043;-71
2021/12/12 07:04:35;;;;;;;41.03;15.85;;;5.50;99.90;;;;;;5111753;27;20483;-71
2021/12/12 07:07:04;;;;;;;49.85;17.80;;;5.60;99.90;;;;;;5111808;27;20054;-72
2021/12/12 07:09:30;;;;;;;51.92;17.83;;;5.60;99.90;;;;;;5087052;27;20417;-72
2021/12/12 07:12:00;;;;;;;49.33;17.15;;;5.60;99.90;;;;;;5111775;27;20366;-73
2021/12/12 07:14:26;;;;;;;52.40;17.80;;;5.60;99.90;;;;;;5109571;27;20035;-72
2021/12/12 07:16:54;;;;;;;52.97;17.08;;;5.70;99.90;;;;;;5109148;27;20035;-71
2021/12/12 07:19:21;;;;;;;44.42;16.27;;;5.70;99.90;;;;;;5094047;27;20489;-72
2021/12/12 07:21:47;;;;;;;46.47;16.70;;;5.70;99.90;;;;;;5111044;27;20047;-73
2021/12/12 07:24:14;;;;;;;52.92;17.70;;;5.70;99.90;;;;;;5107000;28;20047;-72
2021/12/12 07:26:40;;;;;;;47.53;16.92;;;5.70;99.90;;;;;;5108859;27;20100;-72
2021/12/12 07:29:06;;;;;;;49.42;17.25;;;5.70;99.90;;;;;;5110161;28;20039;-71
2021/12/12 07:31:35;;;;;;;54.97;18.50;;;5.70;99.90;;;;;;5111270;28;20042;-72
2021/12/12 07:34:04;;;;;;;49.72;16.98;;;5.70;99.90;;;;;;5106895;28;20039;-72
2021/12/12 07:36:35;;;;;;;53.20;17.77;;;5.80;99.90;;;;;;5104534;28;20112;-73
2021/12/12 07:39:05;;;;;;;53.78;19.00;;;5.80;99.90;;;;;;5113160;27;20073;-73
2021/12/12 07:41:32;;;;;;;58.40;19.00;;;5.80;99.90;;;;;;5110364;27;20215;-72
2021/12/12 07:44:00;;;;;;;49.08;17.50;;;5.80;99.90;;;;;;5114966;27;20493;-72
2021/12/12 07:46:27;;;;;;;68.03;19.63;;;5.80;99.90;;;;;;5115870;27;20062;-72
2021/12/12 07:48:54;;;;;;;52.53;17.70;;;5.80;99.90;;;;;;5115129;27;20103;-71
2021/12/12 07:51:21;;;;;;;75.53;21.40;;;5.90;99.90;;;;;;5130110;27;20074;-73
2021/12/12 07:53:52;;;;;;;73.22;20.55;;;5.90;99.90;;;;;;5115446;27;20027;-71
2021/12/12 07:56:19;;;;;;;60.55;19.33;;;6.00;99.90;;;;;;5097304;27;20091;-70
2021/12/12 07:58:45;;;;;;;72.35;20.90;;;6.00;99.90;;;;;;5108598;27;20044;-70
2021/12/12 08:01:13;;;;;;;74.38;20.58;;;6.00;99.90;;;;;;5109867;27;20078;-70
2021/12/12 08:03:43;;;;;;;71.57;20.83;;;6.10;99.90;;;;;;5116915;27;20039;-69
2021/12/12 08:06:11;;;;;;;82.85;22.88;;;6.10;99.90;;;;;;5116173;27;20069;-73
2021/12/12 08:08:37;;;;;;;72.97;21.25;;;6.20;99.90;;;;;;5112540;27;20401;-69
2021/12/12 08:11:04;;;;;;;74.57;21.27;;;6.30;99.90;;;;;;5115843;27;20039;-73
2021/12/12 08:13:31;;;;;;;76.55;21.58;;;6.30;99.90;;;;;;5114064;27;20042;-70
2021/12/12 08:15:57;;;;;;;74.03;22.08;;;6.30;99.90;;;;;;5099749;27;20109;-71
2021/12/12 08:18:23;;;;;;;73.50;20.90;;;6.40;99.90;;;;;;5116849;27;20043;-70
2021/12/12 08:20:50;;;;;;;73.22;20.58;;;6.50;99.90;;;;;;5116884;27;20122;-70
2021/12/12 08:23:17;;;;;;;74.65;20.98;;;6.50;99.90;;;;;;5115165;27;20050;-72
2021/12/12 08:25:45;;;;;;;84.15;22.15;;;6.60;99.90;;;;;;5116778;27;20035;-72
2021/12/12 08:28:10;;;;;;;68.57;20.23;;;6.60;99.90;;;;;;5116315;27;20386;-71
2021/12/12 08:30:37;;;;;;;76.15;20.42;;;6.60;99.90;;;;;;5099139;27;20187;-70
2021/12/12 08:33:05;;;;;;;90.32;22.70;;;6.60;99.90;;;;;;5134104;27;20061;-72
2021/12/12 08:35:32;;;;;;;87.85;22.30;;;6.70;99.90;;;;;;5115400;27;20035;-69
2021/12/12 08:38:00;;;;;;;82.97;21.65;;;6.70;99.90;;;;;;5092144;27;20054;-68
2021/12/12 08:40:29;;;;;;;70.93;21.30;;;6.70;99.90;;;;;;5111308;27;20042;-68
2021/12/12 08:42:56;;;;;;;75.05;21.40;;;6.70;99.90;;;;;;5116665;27;20549;-70
2021/12/12 08:45:26;;;;;;;82.10;22.40;;;6.70;99.90;;;;;;5115869;27;20039;-68
2021/12/12 08:47:54;;;;;;;83.03;21.23;;;6.80;99.90;;;;;;5133236;27;20043;-71
2021/12/12 08:50:25;;;;;;;82.57;22.58;;;6.80;99.90;;;;;;5112601;27;20424;-70
2021/12/12 08:52:52;;;;;;;79.20;22.45;;;6.80;99.90;;;;;;5099364;27;20031;-70
2021/12/12 08:55:22;;;;;;;76.75;21.65;;;6.90;99.90;;;;;;5098702;27;20035;-72
2021/12/12 08:58:05;;;;;;;87.07;23.45;;;6.90;99.90;;;;;;5130800;27;20064;-70
2021/12/12 09:00:39;;;;;;;72.32;21.80;;;6.90;99.90;;;;;;5095424;28;20044;-72
2021/12/12 09:03:08;;;;;;;88.50;23.60;;;7.00;99.90;;;;;;5102798;27;20444;-68
2021/12/12 09:05:36;;;;;;;81.40;22.13;;;7.00;99.90;;;;;;5115340;27;20268;-68
2021/12/12 09:08:14;;;;;;;82.85;22.13;;;7.00;99.90;;;;;;5108428;27;20541;-69
2021/12/12 09:10:50;;;;;;;75.10;22.48;;;7.10;99.90;;;;;;5089060;27;20047;-69
2021/12/12 09:13:22;;;;;;;81.40;22.45;;;7.10;99.90;;;;;;5114916;27;20043;-67
2021/12/12 09:16:00;;;;;;;75.35;22.63;;;7.10;99.90;;;;;;5109907;27;20068;-72
2021/12/12 09:18:40;;;;;;;79.72;23.60;;;7.20;99.90;;;;;;5111845;27;20039;-70
2021/12/12 09:21:11;;;;;;;76.43;22.50;;;7.20;99.90;;;;;;5114754;27;20493;-72
2021/12/12 09:23:43;;;;;;;95.35;24.50;;;7.30;99.90;;;;;;5112948;27;20045;-69
2021/12/12 09:26:14;;;;;;;108.22;39.80;;;7.30;99.90;;;;;;5111495;27;20486;-69
2021/12/12 09:29:21;;;;;;;115.55;37.38;;;7.30;99.90;;;;;;5111113;27;20043;-70
2021/12/12 09:32:23;;;;;;;87.53;26.67;;;7.30;99.90;;;;;;5043690;28;20041;-68
2021/12/12 09:35:19;;;;;;;99.82;24.60;;;7.40;99.90;;;;;;5109019;27;20096;-70
2021/12/12 09:38:03;;;;;;;77.65;22.70;;;7.40;99.90;;;;;;5114277;27;20564;-70
2021/12/12 09:40:49;;;;;;;97.82;23.02;;;7.40;99.90;;;;;;5095858;28;20087;-69
2021/12/12 09:43:57;;;;;;;101.80;24.38;;;7.40;99.90;;;;;;5114632;27;20054;-74
2021/12/12 09:46:56;;;;;;;88.00;23.48;;;7.50;99.90;;;;;;5116365;27;20036;-70
2021/12/12 09:53:03;;;;;;;90.85;23.20;;;7.50;99.90;;;;;;5115571;27;20109;-67
2021/12/12 09:55:43;;;;;;;87.80;22.40;;;7.60;99.90;;;;;;5116261;27;20420;-72
2021/12/12 09:58:20;;;;;;;87.38;23.67;;;7.60;99.90;;;;;;5115767;27;20043;-72
2021/12/12 10:00:56;;;;;;;90.65;24.70;;;7.60;99.90;;;;;;5113779;27;20039;-68
2021/12/12 10:04:02;;;;;;;95.40;24.85;;;7.70;99.90;;;;;;5115835;27;20039;-68
2021/12/12 10:07:00;;;;;;;86.55;22.58;;;7.70;99.90;;;;;;5101377;28;20043;-72
2021/12/12 10:10:05;;;;;;;84.95;23.80;;;7.70;99.90;;;;;;5094964;28;20084;-69
2021/12/12 10:12:35;;;;;;;92.10;25.48;;;7.80;99.90;;;;;;5114135;27;20050;-68
2021/12/12 10:15:20;;;;;;;95.30;24.58;;;7.80;99.90;;;;;;5115215;27;20075;-69
2021/12/12 10:17:59;;;;;;;96.80;25.17;;;7.80;99.90;;;;;;5114761;27;20100;-68
2021/12/12 10:20:40;;;;;;;93.40;24.88;;;7.90;99.90;;;;;;5115591;27;20501;-73
2021/12/12 10:23:20;;;;;;;93.35;25.17;;;7.90;99.90;;;;;;5114838;27;20084;-71
2021/12/12 10:25:46;;;;;;;72.78;21.50;;;7.90;99.90;;;;;;5132594;27;20053;-71
2021/12/12 10:28:20;;;;;;;79.60;22.20;;;7.90;99.90;;;;;;5118134;27;20125;-69
2021/12/12 10:30:58;;;;;;;95.38;23.92;;;8.00;99.90;;;;;;5115901;27;20394;-67
2021/12/12 10:33:35;;;;;;;87.10;22.42;;;8.00;99.90;;;;;;5098418;27;20114;-71
2021/12/12 10:36:07;;;;;;;81.93;20.33;;;8.10;99.90;;;;;;5123428;27;20052;-69
2021/12/12 10:39:04;;;;;;;77.95;21.55;;;8.10;99.90;;;;;;5118526;27;20028;-69
2021/12/12 10:41:36;;;;;;;76.90;21.23;;;8.10;99.90;;;;;;5112942;27;20038;-72
2021/12/12 10:44:10;;;;;;;72.72;19.77;;;8.20;99.90;;;;;;5107631;27;20434;-70
2021/12/12 10:46:36;;;;;;;65.32;19.30;;;8.20;99.90;;;;;;5106273;27;20035;-73
2021/12/12 10:49:17;;;;;;;81.85;21.30;;;8.20;99.90;;;;;;5114924;27;20068;-69
2021/12/12 10:52:10;;;;;;;67.05;19.55;;;8.20;99.90;;;;;;5095258;27;20103;-69
2021/12/12 10:54:52;;;;;;;68.00;19.40;;;8.20;99.90;;;;;;5110250;27;20063;-71
2021/12/12 10:57:23;;;;;;;66.32;18.52;;;8.20;99.90;;;;;;5109577;27;20039;-68
2021/12/12 10:59:54;;;;;;;67.20;20.67;;;8.30;99.90;;;;;;5107104;27;20050;-70
2021/12/12 11:02:36;;;;;;;69.18;19.48;;;8.30;99.90;;;;;;5094224;27;20042;-69
2021/12/12 11:05:08;;;;;;;61.17;18.15;;;8.30;99.90;;;;;;5110425;27;20089;-70
2021/12/12 11:07:57;;;;;;;;;;;8.30;99.90;;;;;;5096821;27;20051;-75
2021/12/12 11:10:33;;;;;;;62.35;18.20;;;8.40;99.90;;;;;;5102186;27;19916;-70
2021/12/12 11:13:07;;;;;;;62.67;18.00;;;8.40;99.90;;;;;;5110869;27;20074;-69
2021/12/12 11:16:00;;;;;;;54.65;17.52;;;8.40;99.90;;;;;;5110762;27;20041;-70
2021/12/12 11:18:40;;;;;;;64.55;19.77;;;8.40;99.90;;;;;;5112653;27;20039;-72
2021/12/12 11:21:18;;;;;;;62.40;17.98;;;8.40;99.90;;;;;;5113617;27;20039;-71
2021/12/12 11:24:00;;;;;;;60.60;17.52;;;8.40;99.90;;;;;;5089687;27;20107;-68
2021/12/12 11:26:34;;;;;;;63.17;18.00;;;8.40;99.90;;;;;;5113477;28;20039;-70
2021/12/12 11:29:04;;;;;;;60.33;18.75;;;8.50;99.90;;;;;;5095558;28;20043;-79
2021/12/12 11:31:44;;;;;;;58.53;18.23;;;8.50;99.90;;;;;;5112325;28;20076;-74
2021/12/12 11:34:11;;;;;;;60.17;17.98;;;8.50;99.90;;;;;;5126939;28;20073;-70
2021/12/12 11:37:02;;;;;;;63.17;18.63;;;8.50;99.90;;;;;;5113763;28;20035;-71
2021/12/12 11:39:38;;;;;;;57.65;17.58;;;8.50;99.90;;;;;;5112815;28;20042;-71
2021/12/12 11:42:17;;;;;;;58.83;18.85;;;8.60;99.90;;;;;;5113294;28;20122;-68
2021/12/12 11:45:17;;;;;;;60.47;18.45;;;8.60;99.90;;;;;;5112175;28;20096;-70
2021/12/12 11:48:13;;;;;;;53.50;17.60;;;8.60;99.90;;;;;;5098136;28;20052;-68
2021/12/12 11:51:00;;;;;;;75.85;19.73;;;8.70;99.90;;;;;;5110837;28;20042;-70
2021/12/12 11:53:46;;;;;;;69.43;18.25;;;8.70;99.90;;;;;;5113368;28;20487;-70
2021/12/12 11:56:44;;;;;;;70.38;19.65;;;8.80;99.90;;;;;;5113217;27;20114;-70
2021/12/12 11:59:23;;;;;;;62.10;18.38;;;8.80;99.90;;;;;;5107912;27;20437;-70
2021/12/12 12:01:49;;;;;;;49.38;15.70;;;8.80;99.90;;;;;;5107884;28;20035;-70
2021/12/12 12:04:59;;;;;;;64.57;17.45;;;8.90;99.90;;;;;;5095980;28;20363;-73
2021/12/12 12:07:57;;;;;;;47.63;15.75;;;8.90;99.90;;;;;;5113544;28;20036;-72
2021/12/12 12:10:25;;;;;;;52.17;15.95;;;9.00;99.90;;;;;;5086109;28;20046;-70
2021/12/12 12:13:24;;;;;;;48.70;16.30;;;9.00;99.90;;;;;;5113519;28;20035;-72
2021/12/12 12:16:01;;;;;;;57.70;17.55;;;9.00;99.90;;;;;;5094064;28;20051;-73
2021/12/12 12:18:48;;;;;;;50.25;15.48;;;9.10;99.90;;;;;;5112181;28;20142;-71
2021/12/12 12:21:33;;;;;;;49.83;16.15;;;9.00;99.90;;;;;;5095871;28;20039;-72
2021/12/12 12:26:51;;;;;;;56.58;16.90;;;9.10;99.90;;;;;;5110085;27;20444;-69
2021/12/12 12:29:33;;;;;;;56.03;17.77;;;9.10;99.90;;;;;;5115566;27;20065;-71
2021/12/12 12:32:04;;;;;;;63.45;19.10;;;9.10;99.90;;;;;;5102698;27;20039;-70
2021/12/12 12:35:27;;;;;;;54.90;18.13;;;9.10;99.90;;;;;;5117534;27;20498;-73
2021/12/12 12:38:31;;;;;;;56.20;17.85;;;9.20;99.90;;;;;;5111402;27;20039;-70
2021/12/12 12:41:15;;;;;;;53.92;18.05;;;9.20;99.90;;;;;;5107518;27;20031;-69
2021/12/12 12:44:25;;;;;;;59.78;19.73;;;9.20;99.90;;;;;;5116844;27;20039;-71
2021/12/12 12:47:22;;;;;;;62.05;21.45;;;9.20;99.90;;;;;;5116329;27;20494;-71
2021/12/12 12:50:36;;;;;;;70.50;20.52;;;9.20;99.90;;;;;;5116495;27;20049;-70
2021/12/12 12:53:12;;;;;;;67.65;20.98;;;9.30;99.90;;;;;;5103248;27;20116;-72
2021/12/12 12:56:04;;;;;;;73.03;21.08;;;9.30;99.90;;;;;;5113597;27;20076;-71
2021/12/12 12:59:05;;;;;;;69.43;19.20;;;9.30;99.90;;;;;;5112987;27;20100;-70
2021/12/12 13:01:46;;;;;;;58.95;20.73;;;9.30;99.90;;;;;;5114105;27;20046;-71
2021/12/12 13:04:24;;;;;;;67.18;20.95;;;9.30;99.90;;;;;;5110738;27;20046;-71
2021/12/12 13:07:18;;;;;;;62.03;19.65;;;9.40;99.90;;;;;;5114397;27;20038;-69
2021/12/12 13:09:52;;;;;;;69.63;21.85;;;9.40;99.90;;;;;;5114866;27;20038;-71
2021/12/12 13:12:30;;;;;;;56.63;20.05;;;9.40;99.90;;;;;;5094574;27;20038;-70
2021/12/12 13:15:04;;;;;;;77.03;22.33;;;9.40;99.90;;;;;;5115293;27;20031;-74
2021/12/12 13:17:43;;;;;;;74.25;22.70;;;9.40;99.90;;;;;;5112416;27;20169;-70
2021/12/12 13:20:35;;;;;;;68.97;23.38;;;9.50;99.90;;;;;;5114314;27;20130;-73
2021/12/12 13:23:28;;;;;;;75.32;23.60;;;9.50;99.90;;;;;;5113760;27;20092;-69
2021/12/12 13:26:13;;;;;;;68.13;21.67;;;9.50;99.90;;;;;;5114249;27;20067;-69
2021/12/12 13:29:17;;;;;;;64.55;22.00;;;9.50;99.90;;;;;;5096777;27;20078;-71
2021/12/12 13:32:00;;;;;;;75.30;22.05;;;9.50;99.90;;;;;;5115559;27;20038;-68
2021/12/12 13:34:38;;;;;;;79.18;22.98;;;9.50;99.90;;;;;;5115319;27;20046;-70